Time;durP1;ratioP1;P1;durP2;ratioP2;P2;SDS_P1;SDS_P2;PMS_P1;PMS_P2;Temp;Humidity;BMP_temperature;BMP_pressure;BME280_temperature;BME280_humidity;BME280_pressure;Samples;Min_cycle;Max_cycle;Signal;HPM_P1;HPM_P2
2021/10/19 00:00:16;;;;;;;25.55;16.95;;;13.10;99.90;;;;;;6277094;22;20015;-80
2021/10/19 00:02:43;;;;;;;29.10;17.90;;;13.00;99.90;;;;;;6249002;22;20019;-79
2021/10/19 00:05:10;;;;;;;27.48;17.92;;;13.10;99.90;;;;;;6276406;22;20016;-80
2021/10/19 00:07:36;;;;;;;25.45;17.70;;;13.10;99.90;;;;;;6249186;22;20070;-79
2021/10/19 00:10:04;;;;;;;23.17;17.17;;;13.20;99.90;;;;;;6248806;22;20012;-80
2021/10/19 00:12:29;;;;;;;27.77;16.95;;;13.00;99.90;;;;;;6249287;22;20039;-79
2021/10/19 00:14:57;;;;;;;25.65;17.08;;;13.10;99.90;;;;;;6248963;22;20323;-80
2021/10/19 00:17:23;;;;;;;28.23;17.05;;;13.10;99.90;;;;;;6249141;22;20023;-80
2021/10/19 00:19:49;;;;;;;29.05;17.98;;;13.00;99.90;;;;;;6248543;22;20015;-80
2021/10/19 00:22:15;;;;;;;27.73;17.65;;;13.10;99.90;;;;;;6275466;22;20062;-80
2021/10/19 00:24:42;;;;;;;24.13;16.92;;;13.10;99.90;;;;;;6223907;22;20015;-80
2021/10/19 00:27:08;;;;;;;24.58;17.67;;;13.50;99.90;;;;;;6249232;22;20011;-79
2021/10/19 00:29:33;;;;;;;23.77;16.75;;;13.00;99.90;;;;;;6248419;22;20477;-78
2021/10/19 00:31:59;;;;;;;25.95;17.88;;;13.10;99.90;;;;;;6248558;22;20087;-75
2021/10/19 00:34:25;;;;;;;25.27;17.75;;;13.10;99.90;;;;;;6249275;22;20082;-75
2021/10/19 00:36:51;;;;;;;25.15;18.33;;;13.10;99.90;;;;;;6248291;22;20008;-78
2021/10/19 00:39:17;;;;;;;28.38;17.73;;;13.00;99.90;;;;;;6223885;22;20016;-75
2021/10/19 00:41:43;;;;;;;26.85;17.80;;;13.00;99.90;;;;;;6223151;22;20050;-74
2021/10/19 00:44:11;;;;;;;25.60;17.20;;;13.00;99.90;;;;;;6248715;22;20026;-75
2021/10/19 00:46:40;;;;;;;26.10;17.85;;;13.10;99.90;;;;;;6248490;22;20047;-75
2021/10/19 00:49:06;;;;;;;29.20;17.58;;;13.20;99.90;;;;;;6275906;22;20020;-74
2021/10/19 00:51:32;;;;;;;25.35;17.25;;;13.00;99.90;;;;;;6276012;22;20496;-75
2021/10/19 00:53:58;;;;;;;28.27;18.35;;;13.00;99.90;;;;;;6223630;22;20041;-79
2021/10/19 00:56:26;;;;;;;28.00;18.27;;;13.00;99.90;;;;;;6223937;22;20022;-80
2021/10/19 00:58:55;;;;;;;29.10;18.73;;;13.00;99.90;;;;;;6224171;22;20724;-80
2021/10/19 01:01:21;;;;;;;26.63;18.17;;;13.00;99.90;;;;;;6249505;22;20008;-80
2021/10/19 01:03:47;;;;;;;24.58;16.90;;;13.00;99.90;;;;;;6249109;22;20468;-80
2021/10/19 01:06:13;;;;;;;28.13;18.13;;;13.00;99.90;;;;;;6249044;22;20008;-80
2021/10/19 01:08:40;;;;;;;27.98;17.90;;;13.00;99.90;;;;;;6198416;22;20047;-76
2021/10/19 01:11:07;;;;;;;24.52;17.85;;;13.00;99.90;;;;;;6223078;22;20031;-76
2021/10/19 01:13:34;;;;;;;27.10;17.67;;;13.00;99.90;;;;;;6222399;22;20051;-79
2021/10/19 01:16:08;;;;;;;26.80;17.77;;;13.00;99.90;;;;;;6248329;22;20012;-76
2021/10/19 01:18:34;;;;;;;27.00;18.08;;;13.10;99.90;;;;;;6221194;22;20011;-76
2021/10/19 01:21:00;;;;;;;28.40;18.70;;;13.00;99.90;;;;;;6248490;22;20016;-76
2021/10/19 01:23:26;;;;;;;28.15;18.23;;;13.10;99.90;;;;;;6276093;22;20334;-80
2021/10/19 01:25:52;;;;;;;24.98;17.40;;;13.10;99.90;;;;;;6248858;22;20011;-80
2021/10/19 01:28:19;;;;;;;29.15;19.13;;;13.10;99.90;;;;;;6249056;22;20016;-79
2021/10/19 01:30:48;;;;;;;26.83;18.48;;;13.00;99.90;;;;;;6222609;22;20038;-79
2021/10/19 01:33:14;;;;;;;26.58;19.27;;;13.10;99.90;;;;;;6276281;22;20008;-79
2021/10/19 01:35:42;;;;;;;26.30;18.67;;;13.10;99.90;;;;;;6275159;22;20437;-78
2021/10/19 01:38:15;;;;;;;28.92;18.10;;;13.10;99.90;;;;;;6275989;22;20338;-79
2021/10/19 01:40:41;;;;;;;29.00;18.88;;;13.40;99.90;;;;;;6223326;22;20081;-79
2021/10/19 01:43:15;;;;;;;24.10;17.27;;;13.10;99.90;;;;;;6225512;22;20442;-76
2021/10/19 01:45:41;;;;;;;26.67;19.08;;;13.10;99.90;;;;;;6225445;22;20069;-75
2021/10/19 01:48:08;;;;;;;26.25;17.52;;;13.10;99.90;;;;;;6250602;22;20022;-75
2021/10/19 01:50:34;;;;;;;28.02;17.67;;;13.10;99.90;;;;;;6249715;22;20015;-73
2021/10/19 01:53:06;;;;;;;27.05;17.70;;;13.10;99.90;;;;;;6251097;22;20004;-73
2021/10/19 01:55:32;;;;;;;28.20;16.92;;;13.20;99.90;;;;;;6225420;22;20016;-73
2021/10/19 01:57:57;;;;;;;26.40;17.75;;;13.20;99.90;;;;;;6251032;22;20460;-73
2021/10/19 02:00:23;;;;;;;23.83;16.75;;;13.20;99.90;;;;;;6277989;22;20015;-72
2021/10/19 02:02:49;;;;;;;24.33;18.52;;;13.20;99.90;;;;;;6225580;22;20019;-73
2021/10/19 02:05:14;;;;;;;23.73;16.92;;;13.20;99.90;;;;;;6251024;22;20011;-72
2021/10/19 02:07:40;;;;;;;28.65;18.00;;;13.20;99.90;;;;;;6276774;22;20054;-73
2021/10/19 02:10:08;;;;;;;24.00;17.45;;;13.20;99.90;;;;;;6250360;22;20094;-73
2021/10/19 02:12:34;;;;;;;21.30;16.63;;;13.20;99.90;;;;;;6277721;22;20372;-73
2021/10/19 02:15:00;;;;;;;29.05;18.13;;;13.20;99.90;;;;;;6277484;22;20007;-73
2021/10/19 02:17:25;;;;;;;25.63;18.08;;;13.20;99.90;;;;;;6250290;22;20018;-74
2021/10/19 02:19:51;;;;;;;22.02;17.17;;;13.20;99.90;;;;;;6250528;22;20373;-74
2021/10/19 02:22:17;;;;;;;27.20;17.48;;;13.20;99.90;;;;;;6250557;22;20016;-75
2021/10/19 02:24:43;;;;;;;24.70;17.52;;;13.20;99.90;;;;;;6277112;22;20008;-73
2021/10/19 02:27:09;;;;;;;25.85;17.92;;;13.20;99.90;;;;;;6250141;22;20464;-73
2021/10/19 02:29:35;;;;;;;24.98;16.73;;;13.50;99.90;;;;;;6250070;22;20345;-72
2021/10/19 02:32:00;;;;;;;22.17;17.50;;;13.30;99.90;;;;;;6277846;22;20004;-72
2021/10/19 02:34:26;;;;;;;25.80;17.67;;;13.20;99.90;;;;;;6250133;22;20338;-72
2021/10/19 02:36:52;;;;;;;28.73;17.38;;;13.20;99.90;;;;;;6277398;22;20023;-73
2021/10/19 02:39:18;;;;;;;27.77;17.25;;;13.30;99.90;;;;;;6225364;22;20330;-72
2021/10/19 02:41:44;;;;;;;24.52;17.50;;;13.20;99.90;;;;;;6249775;22;20051;-73
2021/10/19 02:44:10;;;;;;;24.27;17.38;;;13.30;99.90;;;;;;6250110;22;20326;-73
2021/10/19 02:46:39;;;;;;;23.92;17.45;;;13.20;99.90;;;;;;6276993;22;20338;-72
2021/10/19 02:49:05;;;;;;;25.98;18.08;;;13.20;99.90;;;;;;6225364;22;20019;-73
2021/10/19 02:51:31;;;;;;;24.35;17.23;;;13.20;99.90;;;;;;6249860;22;20501;-72
2021/10/19 02:53:57;;;;;;;25.08;17.65;;;13.20;99.90;;;;;;6277277;22;20376;-73
2021/10/19 02:56:23;;;;;;;24.27;17.75;;;13.20;99.90;;;;;;6250065;22;20007;-72
2021/10/19 02:58:49;;;;;;;24.05;18.38;;;13.20;99.90;;;;;;6248840;22;20342;-73
2021/10/19 03:01:16;;;;;;;24.67;17.15;;;13.20;99.90;;;;;;6277069;22;20091;-72
2021/10/19 03:03:42;;;;;;;22.65;16.70;;;13.20;99.90;;;;;;6224778;22;20022;-72
2021/10/19 03:06:07;;;;;;;25.83;16.92;;;13.20;99.90;;;;;;6277184;22;20016;-72
2021/10/19 03:08:33;;;;;;;24.70;17.73;;;13.20;99.90;;;;;;6276774;22;20450;-73
2021/10/19 03:10:59;;;;;;;27.60;18.08;;;13.10;99.90;;;;;;6277437;22;20082;-73
2021/10/19 03:13:25;;;;;;;22.65;16.92;;;13.40;99.90;;;;;;6277163;22;20368;-73
2021/10/19 03:15:51;;;;;;;27.27;17.73;;;13.20;99.90;;;;;;6249164;22;20074;-72
2021/10/19 03:18:17;;;;;;;23.20;17.77;;;13.20;99.90;;;;;;6276924;22;20016;-73
2021/10/19 03:20:43;;;;;;;21.98;17.20;;;13.20;99.90;;;;;;6249493;22;20026;-73
2021/10/19 03:23:10;;;;;;;24.77;17.00;;;13.20;99.90;;;;;;6276827;22;20012;-72
2021/10/19 03:25:36;;;;;;;23.33;16.98;;;13.20;99.90;;;;;;6224217;22;20058;-74
2021/10/19 03:28:02;;;;;;;26.73;17.48;;;13.20;99.90;;;;;;6249488;22;20022;-72
2021/10/19 03:30:30;;;;;;;28.10;18.02;;;13.20;99.90;;;;;;6224013;22;20051;-72
2021/10/19 03:32:56;;;;;;;26.65;18.02;;;13.40;99.90;;;;;;6276694;22;20027;-73
2021/10/19 03:35:22;;;;;;;25.00;17.98;;;13.20;99.90;;;;;;6249539;22;20467;-73
2021/10/19 03:37:48;;;;;;;25.15;16.92;;;13.20;99.90;;;;;;6249573;22;20349;-73
2021/10/19 03:40:14;;;;;;;27.52;17.17;;;13.20;99.90;;;;;;6249504;22;20016;-73
2021/10/19 03:42:41;;;;;;;23.98;18.00;;;13.20;99.90;;;;;;6276555;22;20016;-73
2021/10/19 03:45:11;;;;;;;24.67;17.42;;;13.20;99.90;;;;;;6277358;22;20341;-73
2021/10/19 03:47:36;;;;;;;23.35;17.48;;;13.30;99.90;;;;;;6249580;22;20073;-72
2021/10/19 03:50:03;;;;;;;28.20;18.15;;;13.20;99.90;;;;;;6224526;22;20008;-72
2021/10/19 03:52:28;;;;;;;29.17;17.35;;;13.30;99.90;;;;;;6275729;22;20015;-72
2021/10/19 03:54:54;;;;;;;25.38;17.88;;;13.30;99.90;;;;;;6276710;22;20069;-72
2021/10/19 03:57:20;;;;;;;26.25;16.67;;;13.30;99.90;;;;;;6276647;22;20334;-75
2021/10/19 03:59:45;;;;;;;26.33;17.23;;;13.20;99.90;;;;;;6249450;22;20023;-77
2021/10/19 04:02:11;;;;;;;26.13;17.77;;;13.30;99.90;;;;;;6224484;22;20018;-76
2021/10/19 04:04:37;;;;;;;25.08;17.08;;;13.30;99.90;;;;;;6276294;22;20115;-72
2021/10/19 04:07:03;;;;;;;24.90;17.27;;;13.30;99.90;;;;;;6276561;22;20110;-72
2021/10/19 04:09:29;;;;;;;23.05;16.80;;;13.30;99.90;;;;;;6248145;22;20456;-72
2021/10/19 04:11:56;;;;;;;23.42;16.63;;;13.30;99.90;;;;;;6249403;22;20019;-72
2021/10/19 04:14:21;;;;;;;24.40;17.38;;;13.30;99.90;;;;;;6224371;22;20014;-73
2021/10/19 04:16:47;;;;;;;22.98;17.60;;;13.30;99.90;;;;;;6248822;22;20070;-72
2021/10/19 04:19:13;;;;;;;24.95;17.23;;;13.30;99.90;;;;;;6249477;22;20041;-72
2021/10/19 04:21:41;;;;;;;25.35;17.25;;;13.40;99.90;;;;;;6248874;22;20011;-72
2021/10/19 04:24:08;;;;;;;20.48;16.40;;;13.40;99.90;;;;;;6250512;22;20012;-73
2021/10/19 04:26:33;;;;;;;24.45;17.63;;;13.30;99.90;;;;;;6248321;22;20438;-73
2021/10/19 04:28:59;;;;;;;24.38;17.48;;;13.40;99.90;;;;;;6249153;22;20016;-75
2021/10/19 04:31:25;;;;;;;25.75;18.48;;;13.40;99.90;;;;;;6249412;22;20020;-75
2021/10/19 04:33:51;;;;;;;24.10;16.92;;;13.40;99.90;;;;;;6249312;22;20019;-75
2021/10/19 04:36:16;;;;;;;23.17;17.38;;;13.40;99.90;;;;;;6223856;22;20042;-75
2021/10/19 04:38:42;;;;;;;24.45;17.23;;;13.50;99.90;;;;;;6224165;22;20019;-75
2021/10/19 04:41:08;;;;;;;28.92;19.48;;;13.40;99.90;;;;;;6248869;22;20491;-75
2021/10/19 04:43:34;;;;;;;25.42;17.48;;;13.70;99.90;;;;;;6249217;22;20039;-75
2021/10/19 04:45:59;;;;;;;26.58;17.27;;;13.40;99.90;;;;;;6224151;22;20019;-75
2021/10/19 04:48:27;;;;;;;23.92;16.52;;;13.40;99.90;;;;;;6276717;22;20012;-75
2021/10/19 04:50:52;;;;;;;28.92;18.20;;;13.40;99.90;;;;;;6276270;22;20465;-75
2021/10/19 04:53:18;;;;;;;26.98;17.77;;;13.40;99.90;;;;;;6223841;22;20011;-75
2021/10/19 04:55:47;;;;;;;25.35;18.10;;;13.70;99.90;;;;;;6248928;22;20015;-74
2021/10/19 04:58:13;;;;;;;23.90;16.73;;;13.40;99.90;;;;;;6276346;22;20019;-75
2021/10/19 05:00:39;;;;;;;26.52;18.15;;;13.40;99.90;;;;;;6249143;22;20019;-75
2021/10/19 05:03:05;;;;;;;26.02;17.42;;;13.50;99.90;;;;;;6276573;22;20087;-75
2021/10/19 05:05:31;;;;;;;24.17;17.95;;;13.50;99.90;;;;;;6276723;22;20015;-75
2021/10/19 05:07:56;;;;;;;26.13;18.23;;;13.50;99.90;;;;;;6198758;22;20015;-76
2021/10/19 05:10:22;;;;;;;25.25;18.58;;;13.50;99.90;;;;;;6249024;22;20043;-76
2021/10/19 05:12:48;;;;;;;29.05;18.02;;;13.40;99.90;;;;;;6249127;22;20011;-76
2021/10/19 05:15:14;;;;;;;28.27;18.73;;;13.50;99.90;;;;;;6247988;22;20452;-76
2021/10/19 05:17:40;;;;;;;23.77;17.30;;;13.40;99.90;;;;;;6249572;22;20040;-76
2021/10/19 05:20:06;;;;;;;26.77;18.23;;;13.40;99.90;;;;;;6276373;22;20047;-76
2021/10/19 05:22:33;;;;;;;30.02;20.13;;;13.40;99.90;;;;;;6223431;22;20015;-76
2021/10/19 05:24:58;;;;;;;31.25;19.33;;;13.40;99.90;;;;;;6248771;22;20040;-76
2021/10/19 05:27:24;;;;;;;25.58;19.10;;;13.40;99.90;;;;;;6248904;22;20012;-76
2021/10/19 05:29:50;;;;;;;27.90;19.20;;;13.40;99.90;;;;;;6276330;22;20097;-76
2021/10/19 05:32:17;;;;;;;31.92;19.95;;;13.40;99.90;;;;;;6223657;22;20016;-75
2021/10/19 05:34:42;;;;;;;29.33;20.58;;;13.40;99.90;;;;;;6249629;22;20015;-75
2021/10/19 05:37:11;;;;;;;28.92;20.13;;;13.30;99.90;;;;;;6276336;22;20008;-75
2021/10/19 05:39:37;;;;;;;29.85;20.13;;;13.40;99.90;;;;;;6275703;22;20022;-75
2021/10/19 05:42:04;;;;;;;31.58;20.48;;;13.40;99.90;;;;;;6276243;22;20012;-75
2021/10/19 05:44:30;;;;;;;33.10;21.05;;;13.30;99.90;;;;;;6276060;22;20068;-75
2021/10/19 05:46:55;;;;;;;33.67;20.55;;;13.30;99.90;;;;;;6276402;22;20497;-75
2021/10/19 05:49:21;;;;;;;31.48;22.02;;;13.40;99.90;;;;;;6248903;22;20036;-75
2021/10/19 05:51:48;;;;;;;32.88;21.92;;;13.30;99.90;;;;;;6276232;22;20061;-75
2021/10/19 05:54:16;;;;;;;36.25;20.98;;;13.30;99.90;;;;;;6249491;22;20457;-75
2021/10/19 05:56:42;;;;;;;32.28;21.40;;;13.30;99.90;;;;;;6248087;22;20373;-75
2021/10/19 05:59:08;;;;;;;36.53;23.77;;;13.30;99.90;;;;;;6248657;22;20074;-76
2021/10/19 06:01:34;;;;;;;30.52;21.80;;;13.30;99.90;;;;;;6276365;22;20004;-76
2021/10/19 06:03:59;;;;;;;34.80;22.98;;;13.30;99.90;;;;;;6276247;22;20334;-76
2021/10/19 06:06:25;;;;;;;31.52;23.17;;;13.30;99.90;;;;;;6275820;22;20047;-76
2021/10/19 06:08:51;;;;;;;39.40;23.75;;;13.30;99.90;;;;;;6276136;22;20012;-76
2021/10/19 06:11:21;;;;;;;33.78;21.80;;;13.30;99.90;;;;;;6247934;22;20008;-72
2021/10/19 06:13:47;;;;;;;37.63;23.67;;;13.30;99.90;;;;;;6248179;22;20027;-72
2021/10/19 06:16:12;;;;;;;39.35;21.25;;;13.20;99.90;;;;;;6275838;22;20478;-75
2021/10/19 06:18:38;;;;;;;31.48;21.75;;;13.30;99.90;;;;;;6276125;22;20019;-73
2021/10/19 06:21:04;;;;;;;34.95;22.08;;;13.30;99.90;;;;;;6248670;22;20022;-72
2021/10/19 06:23:30;;;;;;;40.25;22.10;;;13.80;99.90;;;;;;6274984;22;20042;-73
2021/10/19 06:25:56;;;;;;;39.85;23.50;;;13.30;99.90;;;;;;6275901;22;20357;-73
2021/10/19 06:28:22;;;;;;;30.02;22.00;;;13.30;99.90;;;;;;6250070;22;20016;-73
2021/10/19 06:30:48;;;;;;;29.08;22.10;;;13.30;99.90;;;;;;6224788;22;20087;-72
2021/10/19 06:33:14;;;;;;;34.00;22.88;;;13.20;99.90;;;;;;6250571;22;20066;-73
2021/10/19 06:35:42;;;;;;;36.13;23.05;;;13.50;99.90;;;;;;6249916;22;20440;-73
2021/10/19 06:38:08;;;;;;;36.67;24.33;;;13.30;99.90;;;;;;6276867;22;20015;-73
2021/10/19 06:40:35;;;;;;;34.35;23.70;;;13.30;99.90;;;;;;6224578;22;20016;-73
2021/10/19 06:43:00;;;;;;;33.60;22.65;;;13.30;99.90;;;;;;6250270;22;20022;-72
2021/10/19 06:45:26;;;;;;;35.95;22.42;;;13.30;99.90;;;;;;6250351;22;20050;-72
2021/10/19 06:47:52;;;;;;;37.13;22.30;;;13.30;99.90;;;;;;6225516;22;20114;-73
2021/10/19 06:50:18;;;;;;;33.05;22.40;;;13.30;99.90;;;;;;6250639;22;20023;-72
2021/10/19 06:52:44;;;;;;;36.88;22.33;;;13.30;99.90;;;;;;6250401;22;20035;-72
2021/10/19 06:55:10;;;;;;;33.80;24.08;;;13.40;99.90;;;;;;6224170;22;20019;-76
2021/10/19 06:57:41;;;;;;;31.70;23.00;;;13.30;99.90;;;;;;6219978;22;20011;-77
2021/10/19 07:00:12;;;;;;;30.75;22.83;;;13.30;99.90;;;;;;6220730;22;20012;-75
2021/10/19 07:02:37;;;;;;;34.95;22.95;;;13.40;99.90;;;;;;6196729;22;20468;-74
2021/10/19 07:05:04;;;;;;;32.80;23.23;;;13.40;99.90;;;;;;6247902;22;20016;-74
2021/10/19 07:07:30;;;;;;;34.13;23.48;;;13.40;99.90;;;;;;6222981;22;20023;-74
2021/10/19 07:09:55;;;;;;;33.92;23.30;;;13.40;99.90;;;;;;6199645;22;20405;-75
2021/10/19 07:12:21;;;;;;;34.95;22.92;;;13.40;99.90;;;;;;6277074;22;20394;-75
2021/10/19 07:14:50;;;;;;;40.58;24.60;;;13.40;99.90;;;;;;6249445;22;20434;-74
2021/10/19 07:17:15;;;;;;;37.92;23.30;;;13.40;99.90;;;;;;6223548;22;20011;-76
2021/10/19 07:19:41;;;;;;;29.50;21.80;;;13.50;99.90;;;;;;6249288;22;20026;-75
2021/10/19 07:22:07;;;;;;;36.97;22.70;;;13.50;99.90;;;;;;6249544;22;20078;-75
2021/10/19 07:24:33;;;;;;;32.97;23.42;;;13.50;99.90;;;;;;6224659;22;20077;-76
2021/10/19 07:26:59;;;;;;;34.92;22.67;;;13.50;99.90;;;;;;6249466;22;20381;-75
2021/10/19 07:29:25;;;;;;;36.05;23.48;;;13.60;99.90;;;;;;6248759;22;20016;-76
2021/10/19 07:31:51;;;;;;;31.75;22.35;;;13.60;99.90;;;;;;6220609;22;20023;-75
2021/10/19 07:34:17;;;;;;;31.52;21.85;;;13.60;99.90;;;;;;6246318;22;20434;-76
2021/10/19 07:36:42;;;;;;;29.58;22.05;;;13.60;99.90;;;;;;6195732;22;20395;-76
2021/10/19 07:39:08;;;;;;;32.13;22.52;;;13.60;99.90;;;;;;6221102;22;20016;-76
2021/10/19 07:41:36;;;;;;;28.98;20.98;;;13.60;99.90;;;;;;6220506;22;20094;-76
2021/10/19 07:44:07;;;;;;;28.00;22.00;;;13.60;99.90;;;;;;6246830;22;20027;-76
2021/10/19 07:46:40;;;;;;;27.13;20.17;;;13.70;99.90;;;;;;6247064;22;20264;-76
2021/10/19 07:49:07;;;;;;;28.35;21.33;;;13.70;99.90;;;;;;6245591;22;20015;-76
2021/10/19 07:51:33;;;;;;;32.75;21.95;;;13.70;99.90;;;;;;6246492;22;20043;-76
2021/10/19 07:53:59;;;;;;;31.75;20.83;;;13.80;99.90;;;;;;6246322;22;20019;-76
2021/10/19 07:56:24;;;;;;;29.90;21.42;;;13.80;99.90;;;;;;6221740;22;20041;-76
2021/10/19 07:58:50;;;;;;;28.30;20.63;;;13.80;99.90;;;;;;6246319;22;20047;-76
2021/10/19 08:01:18;;;;;;;26.90;21.45;;;13.80;99.90;;;;;;6220082;22;20015;-76
2021/10/19 08:03:43;;;;;;;27.73;21.10;;;13.90;99.90;;;;;;6220790;22;20378;-76
2021/10/19 08:06:09;;;;;;;30.77;21.63;;;13.90;99.90;;;;;;6273793;22;20023;-76
2021/10/19 08:08:37;;;;;;;27.52;22.05;;;13.90;99.90;;;;;;6246921;22;20022;-76
2021/10/19 08:11:04;;;;;;;27.42;19.80;;;13.90;99.90;;;;;;6196577;22;20432;-76
2021/10/19 08:13:31;;;;;;;25.40;20.27;;;13.90;99.90;;;;;;6247169;22;20019;-77
2021/10/19 08:15:57;;;;;;;29.73;22.10;;;14.00;99.90;;;;;;6246447;22;20061;-81
2021/10/19 08:18:23;;;;;;;28.55;20.20;;;14.10;99.90;;;;;;6245207;22;20020;-79
2021/10/19 08:20:48;;;;;;;26.83;19.83;;;14.00;99.90;;;;;;6273881;22;20050;-79
2021/10/19 08:23:15;;;;;;;26.75;20.75;;;14.00;99.90;;;;;;6219230;22;20042;-79
2021/10/19 08:26:05;;;;;;;28.40;20.10;;;14.10;99.90;;;;;;6247752;22;20012;-83
2021/10/19 08:28:31;;;;;;;29.48;21.77;;;14.10;99.90;;;;;;6231268;22;20016;-81
2021/10/19 08:30:58;;;;;;;28.33;19.48;;;14.10;99.90;;;;;;6221064;22;20043;-81
2021/10/19 08:33:24;;;;;;;27.63;20.52;;;14.10;99.90;;;;;;6245826;22;20016;-81
2021/10/19 08:35:50;;;;;;;29.92;20.88;;;14.10;99.90;;;;;;6246254;22;20319;-81
2021/10/19 08:38:19;;;;;;;25.75;19.88;;;14.10;99.90;;;;;;6245331;22;20115;-82
2021/10/19 08:40:48;;;;;;;31.33;20.85;;;14.50;99.90;;;;;;6247103;22;20011;-81
2021/10/19 08:43:14;;;;;;;28.48;20.90;;;14.20;99.90;;;;;;6246936;22;20341;-81
2021/10/19 08:45:40;;;;;;;33.83;20.55;;;14.20;99.90;;;;;;6221861;22;20015;-82
2021/10/19 08:48:08;;;;;;;27.33;20.15;;;14.20;99.90;;;;;;6246150;22;20024;-81
2021/10/19 08:50:34;;;;;;;27.60;20.23;;;14.20;99.90;;;;;;6221924;22;20031;-84
2021/10/19 08:53:00;;;;;;;28.85;20.02;;;14.20;99.90;;;;;;6220306;22;20349;-83
2021/10/19 08:55:28;;;;;;;28.27;20.10;;;14.20;99.90;;;;;;6272520;22;20018;-83
2021/10/19 08:57:58;;;;;;;27.38;20.20;;;14.20;99.90;;;;;;6197275;22;20353;-83
2021/10/19 09:00:26;;;;;;;25.35;19.17;;;14.20;99.90;;;;;;6225113;22;20018;-79
2021/10/19 09:02:52;;;;;;;27.85;20.30;;;14.30;99.90;;;;;;6274517;22;20047;-80
2021/10/19 09:05:23;;;;;;;28.02;20.05;;;14.30;99.90;;;;;;6249386;22;20023;-78
2021/10/19 09:07:59;;;;;;;29.33;20.75;;;14.40;99.90;;;;;;6223206;22;20346;-79
2021/10/19 09:10:27;;;;;;;24.75;18.80;;;14.30;99.90;;;;;;6221378;22;20476;-79
2021/10/19 09:12:58;;;;;;;27.15;19.38;;;14.40;99.90;;;;;;6273625;22;20015;-79
2021/10/19 09:15:26;;;;;;;22.42;18.17;;;14.40;99.90;;;;;;6220035;22;20358;-78
2021/10/19 09:18:01;;;;;;;24.17;19.83;;;14.40;99.90;;;;;;6245028;22;20026;-79
2021/10/19 09:20:29;;;;;;;22.83;17.80;;;14.40;99.90;;;;;;6220891;22;20518;-75
2021/10/19 09:22:58;;;;;;;26.63;18.70;;;14.50;99.90;;;;;;6244213;22;20043;-78
2021/10/19 09:25:25;;;;;;;22.45;18.10;;;14.50;99.90;;;;;;6246238;22;20015;-75
2021/10/19 09:27:52;;;;;;;27.05;18.27;;;14.40;99.90;;;;;;6221087;22;20102;-75
2021/10/19 09:30:22;;;;;;;21.15;17.83;;;14.40;99.90;;;;;;6245713;22;20019;-75
2021/10/19 09:32:54;;;;;;;23.38;18.13;;;14.40;99.90;;;;;;6220125;22;20012;-75
2021/10/19 09:35:21;;;;;;;27.45;18.55;;;14.50;99.90;;;;;;6272996;22;20015;-75
2021/10/19 09:38:08;;;;;;;25.35;18.20;;;14.50;99.90;;;;;;6245841;22;20011;-76
2021/10/19 09:40:41;;;;;;;23.98;17.88;;;14.50;99.90;;;;;;6272519;22;20019;-76
2021/10/19 09:43:10;;;;;;;21.70;17.85;;;14.40;99.90;;;;;;6273321;22;20518;-76
2021/10/19 09:45:40;;;;;;;22.20;17.80;;;14.50;99.90;;;;;;6220791;22;20051;-75
2021/10/19 09:48:11;;;;;;;25.20;18.92;;;14.50;99.90;;;;;;6247000;22;20020;-75
2021/10/19 09:50:41;;;;;;;25.08;18.00;;;14.60;99.90;;;;;;6247243;22;20018;-80
2021/10/19 09:53:13;;;;;;;25.23;18.25;;;14.50;99.90;;;;;;6244243;22;20016;-79
2021/10/19 09:55:41;;;;;;;27.30;19.60;;;14.60;99.90;;;;;;6220048;22;20015;-79
2021/10/19 09:58:07;;;;;;;26.67;19.08;;;14.60;99.90;;;;;;6243704;22;20415;-79
2021/10/19 10:00:33;;;;;;;29.17;19.63;;;14.60;99.90;;;;;;6221564;22;20019;-82
2021/10/19 10:03:05;;;;;;;24.70;18.23;;;14.60;99.90;;;;;;6274613;22;20016;-82
2021/10/19 10:05:32;;;;;;;25.38;18.83;;;14.70;99.90;;;;;;6223698;22;20086;-82
2021/10/19 10:07:59;;;;;;;23.13;18.50;;;14.70;99.90;;;;;;6247321;22;20023;-82
2021/10/19 10:10:26;;;;;;;32.38;20.30;;;14.70;99.90;;;;;;6248371;22;20019;-81
2021/10/19 10:13:06;;;;;;;23.45;17.98;;;14.80;99.90;;;;;;6222467;22;20020;-82
2021/10/19 10:15:34;;;;;;;25.83;19.05;;;14.80;99.90;;;;;;6246811;22;20091;-81
2021/10/19 10:18:03;;;;;;;25.45;18.13;;;14.80;99.90;;;;;;6248157;22;20011;-82
2021/10/19 10:20:34;;;;;;;23.83;18.05;;;14.80;99.90;;;;;;6223583;22;20023;-80
2021/10/19 10:23:12;;;;;;;26.98;18.90;;;14.90;99.90;;;;;;6247573;22;20015;-81
2021/10/19 10:25:38;;;;;;;27.80;19.63;;;14.90;99.90;;;;;;6275376;22;20012;-82
2021/10/19 10:28:27;;;;;;;26.25;18.35;;;14.90;99.90;;;;;;6247475;22;20039;-82
2021/10/19 10:30:58;;;;;;;25.55;18.00;;;15.00;99.90;;;;;;6276193;22;20090;-82
2021/10/19 10:34:03;;;;;;;22.65;17.67;;;15.00;99.90;;;;;;6247982;22;20015;-78
2021/10/19 10:36:45;;;;;;;25.65;17.25;;;15.10;99.90;;;;;;6247670;22;20008;-78
2021/10/19 10:39:12;;;;;;;20.63;16.30;;;15.10;99.90;;;;;;6247916;22;20011;-79
2021/10/19 10:41:47;;;;;;;26.02;16.60;;;15.10;99.90;;;;;;6197742;22;20020;-76
2021/10/19 10:44:22;;;;;;;23.97;15.63;;;15.10;99.90;;;;;;6248004;22;20315;-85
2021/10/19 10:46:48;;;;;;;23.10;15.68;;;15.20;99.90;;;;;;6247704;22;20090;-85
2021/10/19 10:49:17;;;;;;;21.00;14.65;;;15.20;99.90;;;;;;6246931;22;20019;-85
2021/10/19 10:51:43;;;;;;;20.38;14.82;;;15.20;99.90;;;;;;6247908;22;20019;-79
2021/10/19 10:54:14;;;;;;;18.73;13.88;;;15.30;99.90;;;;;;6247086;22;20075;-74
2021/10/19 10:56:45;;;;;;;17.80;13.40;;;15.30;99.90;;;;;;6274883;22;20015;-79
2021/10/19 10:59:27;;;;;;;15.57;12.48;;;15.40;99.90;;;;;;6221894;22;20519;-82
2021/10/19 11:02:06;;;;;;;19.25;12.80;;;15.40;99.90;;;;;;6246043;22;20011;-82
2021/10/19 11:04:32;;;;;;;18.50;12.60;;;15.40;99.90;;;;;;6247570;22;20042;-81
2021/10/19 11:06:59;;;;;;;17.20;12.73;;;15.40;99.90;;;;;;6274240;22;20457;-81
2021/10/19 11:09:29;;;;;;;14.93;11.60;;;15.40;99.90;;;;;;6221034;22;20505;-81
2021/10/19 11:11:58;;;;;;;15.70;11.63;;;15.60;99.90;;;;;;6222089;22;20083;-81
2021/10/19 11:14:26;;;;;;;15.50;12.05;;;15.60;99.90;;;;;;6221641;22;20011;-81
2021/10/19 11:16:56;;;;;;;14.20;11.63;;;15.50;99.90;;;;;;6275314;22;20008;-81
2021/10/19 11:19:23;;;;;;;16.30;12.82;;;15.50;99.90;;;;;;6248391;22;20086;-81
2021/10/19 11:21:55;;;;;;;15.05;11.85;;;15.50;99.90;;;;;;6248553;22;20051;-80
2021/10/19 11:24:22;;;;;;;14.60;12.00;;;15.50;99.90;;;;;;6249967;22;20011;-81
2021/10/19 11:26:48;;;;;;;17.38;12.70;;;15.50;99.90;;;;;;6224083;22;20023;-84
2021/10/19 11:29:15;;;;;;;14.10;11.82;;;15.50;99.90;;;;;;6249849;22;20016;-84
2021/10/19 11:31:41;;;;;;;17.83;12.95;;;15.50;99.90;;;;;;6277125;22;20091;-84
2021/10/19 11:34:12;;;;;;;14.68;12.27;;;15.50;99.90;;;;;;6250300;22;20696;-84
2021/10/19 11:36:38;;;;;;;17.58;13.43;;;15.60;99.90;;;;;;6225375;22;20088;-84
2021/10/19 11:39:14;;;;;;;16.35;13.15;;;15.60;99.90;;;;;;6225517;22;20020;-84
2021/10/19 11:41:44;;;;;;;16.92;12.63;;;15.60;99.90;;;;;;6250441;22;20069;-84
2021/10/19 11:44:10;;;;;;;17.00;11.57;;;15.70;99.90;;;;;;6224935;22;20008;-84
2021/10/19 11:46:36;;;;;;;15.52;12.77;;;15.70;99.90;;;;;;6250570;22;20026;-84
2021/10/19 11:49:12;;;;;;;16.80;13.10;;;15.70;99.90;;;;;;6226439;22;20016;-80
2021/10/19 11:51:41;;;;;;;20.30;14.35;;;15.80;99.90;;;;;;6224516;22;20438;-80
2021/10/19 11:54:08;;;;;;;19.55;14.40;;;15.80;99.90;;;;;;6277198;22;20426;-80
2021/10/19 11:56:33;;;;;;;20.27;14.13;;;15.80;99.90;;;;;;6224792;22;20092;-80
2021/10/19 11:59:08;;;;;;;17.58;13.57;;;15.80;99.90;;;;;;6225673;22;20016;-84
2021/10/19 12:01:42;;;;;;;17.48;13.95;;;15.80;99.90;;;;;;6277992;22;20334;-80
2021/10/19 12:04:13;;;;;;;20.40;14.13;;;15.80;99.90;;;;;;6276851;22;20008;-80
2021/10/19 12:06:46;;;;;;;16.15;12.85;;;15.90;99.90;;;;;;6276398;22;20015;-80
2021/10/19 12:09:19;;;;;;;20.20;13.85;;;15.80;99.90;;;;;;6276672;22;20390;-80
2021/10/19 12:11:58;;;;;;;20.92;14.18;;;15.90;99.90;;;;;;6249989;22;20431;-80
2021/10/19 12:14:44;;;;;;;18.20;13.05;;;16.00;99.90;;;;;;6249172;22;20012;-80
2021/10/19 12:17:11;;;;;;;17.92;13.57;;;16.00;99.90;;;;;;6249104;22;20015;-80
2021/10/19 12:19:38;;;;;;;18.83;13.38;;;16.00;99.90;;;;;;6224030;22;20097;-84
2021/10/19 12:22:09;;;;;;;16.25;11.98;;;16.00;99.90;;;;;;6223623;22;20011;-80
2021/10/19 12:24:41;;;;;;;17.17;12.48;;;16.00;99.90;;;;;;6276471;22;20062;-80
2021/10/19 12:27:13;;;;;;;17.42;12.02;;;16.00;99.90;;;;;;6249213;22;20050;-81
2021/10/19 12:29:39;;;;;;;18.77;12.30;;;16.10;99.90;;;;;;6249365;22;20062;-84